Time;durP1;ratioP1;P1;durP2;ratioP2;P2;SDS_P1;SDS_P2;PMS_P1;PMS_P2;Temp;Humidity;BMP_temperature;BMP_pressure;BME280_temperature;BME280_humidity;BME280_pressure;Samples;Min_cycle;Max_cycle;Signal;HPM_P1;HPM_P2
2022/07/16 00:03:42;;;;;;;6.35;2.50;;;15.30;99.90;;;;;;4963058;28;20145;-59
2022/07/16 00:06:08;;;;;;;5.47;2.50;;;15.30;99.90;;;;;;4963640;28;20647;-57
2022/07/16 00:08:34;;;;;;;5.60;2.80;;;15.30;99.90;;;;;;4970711;28;20038;-57
2022/07/16 00:10:59;;;;;;;3.85;2.53;;;15.30;99.90;;;;;;4962432;28;20070;-57
2022/07/16 00:13:25;;;;;;;4.63;2.42;;;15.30;99.90;;;;;;4961898;28;20244;-57
2022/07/16 00:15:51;;;;;;;5.72;2.28;;;15.30;99.90;;;;;;4993453;28;20081;-56
2022/07/16 00:21:01;;;;;;;6.18;2.90;;;15.30;99.90;;;;;;4962758;28;20657;-56
2022/07/16 00:23:26;;;;;;;5.35;2.75;;;15.30;99.90;;;;;;4962220;28;20046;-57
2022/07/16 00:25:52;;;;;;;4.20;2.90;;;15.20;99.90;;;;;;4963686;28;20051;-57
2022/07/16 00:28:18;;;;;;;5.75;2.50;;;15.30;99.90;;;;;;4965392;28;20051;-57
2022/07/16 00:30:43;;;;;;;4.03;2.50;;;15.30;99.90;;;;;;4997992;28;20070;-56
2022/07/16 00:33:09;;;;;;;7.05;2.55;;;15.30;99.90;;;;;;4965804;28;20039;-58
2022/07/16 00:35:35;;;;;;;7.72;2.85;;;15.40;99.90;;;;;;4965629;28;20671;-57
2022/07/16 00:38:00;;;;;;;4.22;2.70;;;15.40;99.90;;;;;;4965575;28;20108;-57
2022/07/16 00:40:26;;;;;;;6.13;2.70;;;15.40;99.90;;;;;;4965786;28;20110;-58
2022/07/16 00:42:51;;;;;;;5.57;3.00;;;15.40;99.90;;;;;;4964894;28;20399;-57
2022/07/16 00:45:17;;;;;;;7.60;3.05;;;15.50;99.90;;;;;;4965861;28;20043;-56
2022/07/16 00:47:43;;;;;;;3.83;2.63;;;15.50;99.90;;;;;;4966223;28;20619;-57
2022/07/16 00:50:08;;;;;;;4.60;2.72;;;15.50;99.90;;;;;;4965811;28;20502;-57
2022/07/16 00:52:37;;;;;;;5.93;2.78;;;15.50;99.90;;;;;;4965103;28;20550;-56
2022/07/16 00:55:04;;;;;;;6.50;2.90;;;15.50;99.90;;;;;;4965733;28;20054;-58
2022/07/16 00:57:30;;;;;;;4.72;2.70;;;15.60;99.90;;;;;;4965016;28;20050;-57
2022/07/16 00:59:55;;;;;;;6.60;3.40;;;15.60;99.90;;;;;;4964131;28;20382;-56
2022/07/16 01:02:21;;;;;;;5.93;3.20;;;15.60;99.90;;;;;;4963817;28;20051;-56
2022/07/16 01:04:47;;;;;;;6.82;3.65;;;15.60;99.90;;;;;;4965415;28;20127;-55
2022/07/16 01:07:14;;;;;;;6.90;3.90;;;15.50;99.90;;;;;;5013784;22;20050;-56
2022/07/16 01:09:40;;;;;;;6.45;4.22;;;15.30;99.90;;;;;;4989128;28;20042;-57
2022/07/16 01:12:06;;;;;;;6.22;4.15;;;15.30;99.90;;;;;;5003205;28;20065;-56
2022/07/16 01:14:32;;;;;;;9.43;4.43;;;15.10;99.90;;;;;;5003427;28;20046;-58
2022/07/16 01:16:58;;;;;;;8.77;4.90;;;15.10;99.90;;;;;;5003033;28;20054;-58
2022/07/16 01:19:24;;;;;;;8.25;4.45;;;15.00;99.90;;;;;;5002286;28;20841;-57
2022/07/16 01:21:49;;;;;;;6.18;4.22;;;14.90;99.90;;;;;;5003986;28;20042;-58
2022/07/16 01:24:15;;;;;;;7.75;4.25;;;14.90;99.90;;;;;;5003050;28;20141;-58
2022/07/16 01:26:41;;;;;;;8.40;4.40;;;14.90;99.90;;;;;;5003417;28;20081;-58
2022/07/16 01:29:06;;;;;;;7.55;4.05;;;15.00;99.90;;;;;;5003613;28;20037;-58
2022/07/16 01:31:32;;;;;;;10.25;4.20;;;15.00;99.90;;;;;;5003789;28;20145;-57
2022/07/16 01:37:11;;;;;;;5.88;3.67;;;15.00;99.90;;;;;;5003403;28;20089;-57
2022/07/16 01:39:39;;;;;;;5.67;3.80;;;15.00;99.90;;;;;;5003025;28;20061;-58
2022/07/16 01:42:08;;;;;;;6.13;3.65;;;14.90;99.90;;;;;;5002794;28;20096;-57
2022/07/16 01:44:35;;;;;;;8.35;4.07;;;15.00;99.90;;;;;;5003137;28;20048;-58
2022/07/16 01:47:03;;;;;;;5.85;3.38;;;15.00;99.90;;;;;;5003599;28;20046;-57
2022/07/16 01:49:36;;;;;;;6.50;3.50;;;15.00;99.90;;;;;;5002950;28;20511;-58
2022/07/16 01:52:13;;;;;;;5.95;3.40;;;15.00;99.90;;;;;;5001923;28;20053;-57
2022/07/16 01:54:44;;;;;;;7.00;3.13;;;15.00;99.90;;;;;;5002907;28;20413;-58
2022/07/16 01:57:11;;;;;;;6.60;2.60;;;14.90;99.90;;;;;;5002403;28;20385;-57
2022/07/16 01:59:37;;;;;;;5.75;2.72;;;15.00;99.90;;;;;;5003333;28;20053;-58
2022/07/16 02:02:03;;;;;;;4.78;2.33;;;14.90;99.90;;;;;;5002089;28;20297;-58
2022/07/16 02:04:29;;;;;;;4.25;2.40;;;14.90;99.90;;;;;;5002413;28;20075;-58
2022/07/16 02:06:55;;;;;;;4.00;2.10;;;14.70;99.90;;;;;;4996573;28;20047;-58
2022/07/16 02:09:20;;;;;;;9.35;2.60;;;14.80;99.90;;;;;;4989872;28;20136;-58
2022/07/16 02:11:46;;;;;;;6.03;2.08;;;14.80;99.90;;;;;;4983357;28;20056;-58
2022/07/16 02:14:12;;;;;;;7.78;2.22;;;14.80;99.90;;;;;;4983298;28;20051;-58
2022/07/16 02:16:37;;;;;;;7.53;2.33;;;14.80;99.90;;;;;;4983345;28;20054;-58
2022/07/16 02:19:04;;;;;;;5.57;2.28;;;14.80;99.90;;;;;;4984335;28;20057;-58
2022/07/16 02:21:31;;;;;;;6.43;2.42;;;14.80;99.90;;;;;;4983395;28;20092;-58
2022/07/16 02:23:57;;;;;;;4.45;2.08;;;14.80;99.90;;;;;;4984043;28;20464;-58
2022/07/16 02:26:23;;;;;;;6.43;2.25;;;14.80;99.90;;;;;;4983423;28;20050;-58
2022/07/16 02:28:49;;;;;;;7.85;2.40;;;14.80;99.90;;;;;;4984205;28;20046;-58
2022/07/16 02:31:14;;;;;;;5.00;2.00;;;14.80;99.90;;;;;;4982823;28;20413;-58
2022/07/16 02:33:40;;;;;;;5.65;2.40;;;14.80;99.90;;;;;;4983823;28;20489;-58
2022/07/16 02:36:06;;;;;;;6.10;2.30;;;14.70;99.90;;;;;;4983755;28;20056;-58
2022/07/16 02:38:32;;;;;;;5.03;2.05;;;14.70;99.90;;;;;;4983585;28;20105;-59
2022/07/16 02:40:58;;;;;;;5.72;2.50;;;14.70;99.90;;;;;;4982313;28;20042;-58
2022/07/16 02:43:23;;;;;;;6.43;1.95;;;14.70;99.90;;;;;;4983704;28;20136;-58
2022/07/16 02:45:49;;;;;;;5.18;2.00;;;14.70;99.90;;;;;;4983779;28;20047;-59
2022/07/16 02:48:15;;;;;;;5.63;2.15;;;14.70;99.90;;;;;;4983866;28;20079;-57
2022/07/16 02:50:40;;;;;;;10.18;2.75;;;14.70;99.90;;;;;;4983166;28;20611;-58
2022/07/16 02:53:06;;;;;;;4.53;1.80;;;14.60;99.90;;;;;;4983505;28;20318;-58
2022/07/16 02:55:32;;;;;;;7.57;2.17;;;14.60;99.90;;;;;;4983208;28;20046;-58
2022/07/16 02:57:58;;;;;;;4.20;1.85;;;14.60;99.90;;;;;;4982384;28;20050;-58
2022/07/16 03:00:25;;;;;;;7.93;2.28;;;14.50;99.90;;;;;;4983037;28;20046;-58
2022/07/16 03:02:51;;;;;;;6.18;2.30;;;14.50;99.90;;;;;;4983602;28;20050;-58
2022/07/16 03:05:17;;;;;;;5.68;2.10;;;14.40;99.90;;;;;;4983098;28;20057;-58
2022/07/16 03:07:43;;;;;;;8.98;2.45;;;14.50;99.90;;;;;;4993488;28;20046;-57
2022/07/16 03:10:10;;;;;;;9.50;2.25;;;14.30;99.90;;;;;;4983432;28;20042;-57
2022/07/16 03:12:37;;;;;;;6.60;2.50;;;14.40;99.90;;;;;;4982603;28;20048;-58
2022/07/16 03:15:03;;;;;;;7.20;2.17;;;14.40;99.90;;;;;;4983474;28;20121;-57
2022/07/16 03:17:29;;;;;;;6.60;2.28;;;14.30;99.90;;;;;;4982348;28;20089;-57
2022/07/16 03:19:55;;;;;;;4.88;2.10;;;14.40;99.90;;;;;;4983240;28;20048;-58
2022/07/16 03:22:20;;;;;;;7.28;2.20;;;14.40;99.90;;;;;;4982959;28;20050;-58
2022/07/16 03:24:46;;;;;;;6.28;2.28;;;14.30;99.90;;;;;;4981522;28;20061;-58
2022/07/16 03:27:12;;;;;;;5.97;2.10;;;14.20;99.90;;;;;;4980867;28;20046;-59
2022/07/16 03:29:38;;;;;;;8.55;2.30;;;14.20;99.90;;;;;;4982204;28;20046;-58
2022/07/16 03:32:04;;;;;;;5.32;2.50;;;14.20;99.90;;;;;;4982865;28;20117;-57
2022/07/16 03:34:31;;;;;;;5.95;2.40;;;14.20;99.90;;;;;;4982336;28;20450;-58
2022/07/16 03:36:56;;;;;;;7.43;2.30;;;14.10;99.90;;;;;;4982608;28;20069;-57
2022/07/16 03:39:22;;;;;;;9.35;2.25;;;14.20;99.90;;;;;;4982324;28;20046;-58
2022/07/16 03:41:48;;;;;;;7.93;2.28;;;14.10;99.90;;;;;;4982244;28;20050;-58
2022/07/16 03:44:13;;;;;;;5.72;2.10;;;14.10;99.90;;;;;;4981376;28;20130;-58
2022/07/16 03:46:40;;;;;;;5.78;2.42;;;14.00;99.90;;;;;;4982594;28;20117;-57
2022/07/16 03:49:06;;;;;;;4.20;2.42;;;14.00;99.90;;;;;;4982669;28;20281;-57
2022/07/16 03:51:32;;;;;;;6.13;2.47;;;14.00;99.90;;;;;;4982636;28;20073;-57
2022/07/16 03:53:58;;;;;;;9.73;2.78;;;14.00;99.90;;;;;;4982020;28;20057;-57
2022/07/16 03:56:26;;;;;;;7.78;2.63;;;13.90;99.90;;;;;;4981681;28;20089;-57
2022/07/16 03:58:52;;;;;;;6.40;2.33;;;14.00;99.90;;;;;;4997814;28;20081;-58
2022/07/16 04:01:18;;;;;;;6.50;2.35;;;13.90;99.90;;;;;;4984234;28;20089;-58
2022/07/16 04:03:44;;;;;;;5.97;2.50;;;14.00;99.90;;;;;;4986694;28;20046;-58
2022/07/16 04:06:09;;;;;;;4.13;2.10;;;13.90;99.90;;;;;;4989215;28;20121;-57
2022/07/16 04:08:35;;;;;;;7.28;2.60;;;13.90;99.90;;;;;;4994739;28;20062;-57
2022/07/16 04:11:02;;;;;;;5.43;2.08;;;13.90;99.90;;;;;;4984933;28;20057;-58
2022/07/16 04:13:29;;;;;;;6.70;2.35;;;13.90;99.90;;;;;;4986366;28;20066;-58
2022/07/16 04:15:55;;;;;;;7.18;2.15;;;13.90;99.90;;;;;;4986646;28;20439;-58
2022/07/16 04:18:20;;;;;;;5.82;2.28;;;14.00;99.90;;;;;;4986136;28;20129;-62
2022/07/16 04:20:47;;;;;;;5.57;2.22;;;14.00;99.90;;;;;;4985631;28;20830;-58
2022/07/16 04:23:12;;;;;;;8.07;2.42;;;14.00;99.90;;;;;;4986808;28;20046;-57
2022/07/16 04:25:38;;;;;;;8.02;2.70;;;14.00;99.90;;;;;;4985261;28;20445;-57
2022/07/16 04:28:04;;;;;;;8.40;2.58;;;14.00;99.90;;;;;;4984977;28;20057;-60
2022/07/16 04:30:30;;;;;;;5.65;2.58;;;14.10;99.90;;;;;;4985849;28;20061;-58
2022/07/16 04:32:56;;;;;;;9.88;2.60;;;14.10;99.90;;;;;;4986192;28;20160;-57
2022/07/16 04:35:22;;;;;;;6.45;2.70;;;14.10;99.90;;;;;;4985398;28;20078;-58
2022/07/16 04:37:48;;;;;;;6.75;2.30;;;14.10;99.90;;;;;;4985646;28;20046;-58
2022/07/16 04:40:14;;;;;;;7.90;2.47;;;14.10;99.90;;;;;;4986413;28;20046;-57
2022/07/16 04:42:41;;;;;;;7.93;2.78;;;14.10;99.90;;;;;;4985321;28;20050;-58
2022/07/16 04:45:08;;;;;;;7.50;2.65;;;14.10;99.90;;;;;;4985961;28;20202;-57
2022/07/16 04:47:34;;;;;;;8.23;2.60;;;14.20;99.90;;;;;;4985185;28;20528;-57
2022/07/16 04:49:59;;;;;;;9.68;2.53;;;14.20;99.90;;;;;;4985772;28;20129;-57
2022/07/16 04:52:25;;;;;;;8.57;2.90;;;14.40;99.90;;;;;;4984696;28;20064;-58
2022/07/16 04:54:51;;;;;;;6.03;2.50;;;14.90;99.90;;;;;;5000858;28;20035;-56
2022/07/16 04:57:17;;;;;;;4.85;2.33;;;15.10;99.90;;;;;;4984580;28;20042;-58
2022/07/16 04:59:42;;;;;;;6.47;2.33;;;15.00;99.90;;;;;;4986211;28;20537;-58
2022/07/16 05:04:52;;;;;;;7.75;2.35;;;14.60;99.90;;;;;;4985764;28;20046;-58
2022/07/16 05:07:18;;;;;;;7.70;2.28;;;14.50;99.90;;;;;;4992653;28;20065;-57
2022/07/16 05:09:44;;;;;;;9.57;2.50;;;14.50;99.90;;;;;;4989531;28;20042;-58
2022/07/16 05:12:09;;;;;;;8.98;2.60;;;14.30;99.90;;;;;;4984329;28;20189;-58
2022/07/16 05:14:35;;;;;;;9.50;2.40;;;14.30;99.90;;;;;;4985202;28;20090;-57
2022/07/16 05:17:00;;;;;;;12.55;2.78;;;14.20;99.90;;;;;;4985053;28;20096;-57
2022/07/16 05:19:26;;;;;;;7.13;2.33;;;14.20;99.90;;;;;;4985172;28;20060;-58
2022/07/16 05:21:52;;;;;;;8.18;2.50;;;14.10;99.90;;;;;;4984823;28;20054;-57
2022/07/16 05:24:18;;;;;;;7.28;1.85;;;14.10;99.90;;;;;;4984826;28;20133;-57
2022/07/16 05:26:44;;;;;;;9.73;2.47;;;14.20;99.90;;;;;;4983568;28;20054;-57
2022/07/16 05:29:10;;;;;;;7.72;2.08;;;14.20;99.90;;;;;;4984988;28;20414;-58
2022/07/16 05:31:35;;;;;;;10.68;2.70;;;14.30;99.90;;;;;;4984491;28;20144;-57
2022/07/16 05:34:01;;;;;;;10.65;2.10;;;14.40;99.90;;;;;;4985232;28;20050;-58
2022/07/16 05:36:27;;;;;;;6.43;1.58;;;15.10;99.90;;;;;;4984625;28;20046;-57
2022/07/16 05:38:52;;;;;;;7.47;1.70;;;15.70;99.90;;;;;;4984454;28;20049;-58
2022/07/16 05:41:18;;;;;;;8.65;2.25;;;15.80;99.90;;;;;;4982276;28;20052;-57
2022/07/16 05:43:44;;;;;;;10.70;2.50;;;15.60;99.90;;;;;;4985267;28;20038;-57
2022/07/16 05:46:09;;;;;;;7.53;2.10;;;15.50;99.90;;;;;;4984685;28;20038;-57
2022/07/16 05:48:35;;;;;;;8.05;1.70;;;15.60;99.90;;;;;;4982584;28;20136;-58
2022/07/16 05:51:01;;;;;;;4.85;1.40;;;16.20;99.90;;;;;;4984373;28;20703;-58
2022/07/16 05:53:27;;;;;;;7.72;1.95;;;16.90;99.90;;;;;;4984611;28;20038;-58
2022/07/16 05:55:52;;;;;;;8.18;1.75;;;17.30;99.90;;;;;;4983985;28;20073;-58
2022/07/16 05:58:18;;;;;;;10.98;1.67;;;17.50;99.90;;;;;;4983903;28;20624;-57
2022/07/16 06:00:43;;;;;;;7.90;1.77;;;17.40;99.90;;;;;;4984597;28;20360;-56
2022/07/16 06:03:09;;;;;;;12.25;1.83;;;17.60;99.90;;;;;;4983154;28;20408;-58
2022/07/16 06:05:35;;;;;;;5.85;1.20;;;17.80;99.90;;;;;;4984213;28;20270;-58
2022/07/16 06:08:02;;;;;;;6.68;1.48;;;17.30;99.90;;;;;;4994767;28;20061;-58
2022/07/16 06:10:28;;;;;;;6.72;1.42;;;17.80;99.90;;;;;;4983363;28;20086;-58
2022/07/16 06:12:54;;;;;;;7.38;1.33;;;17.90;99.90;;;;;;4984328;28;20457;-58
2022/07/16 06:15:19;;;;;;;7.43;1.45;;;18.10;99.90;;;;;;4983236;28;20147;-58
2022/07/16 06:17:45;;;;;;;8.70;1.70;;;18.00;99.90;;;;;;4984503;28;20042;-57
2022/07/16 06:20:11;;;;;;;4.90;1.40;;;17.60;99.90;;;;;;4984829;28;20046;-58
2022/07/16 06:22:38;;;;;;;7.38;1.98;;;17.20;99.90;;;;;;4983875;28;20050;-58
2022/07/16 06:25:04;;;;;;;6.93;1.38;;;17.40;99.90;;;;;;4982456;28;20089;-59
2022/07/16 06:27:30;;;;;;;5.45;1.10;;;18.00;99.90;;;;;;4983870;28;20097;-58
2022/07/16 06:29:56;;;;;;;8.75;1.17;;;18.30;99.90;;;;;;4983937;28;20104;-57
2022/07/16 06:32:22;;;;;;;8.57;1.33;;;18.70;99.90;;;;;;4984006;28;20043;-58
2022/07/16 06:34:47;;;;;;;3.97;1.00;;;18.20;99.90;;;;;;4983617;28;20418;-58
2022/07/16 06:37:13;;;;;;;4.07;1.00;;;18.00;99.90;;;;;;4983794;28;20058;-58
2022/07/16 06:39:40;;;;;;;5.22;0.90;;;18.00;99.90;;;;;;4982401;28;20042;-58
2022/07/16 06:42:06;;;;;;;6.10;1.10;;;17.90;99.90;;;;;;4983251;28;20050;-57
2022/07/16 06:44:32;;;;;;;5.72;1.00;;;17.80;99.90;;;;;;4982979;28;20783;-57
2022/07/16 06:46:57;;;;;;;4.82;0.85;;;17.60;99.90;;;;;;4982442;28;20077;-57
2022/07/16 06:49:23;;;;;;;4.03;0.73;;;17.90;99.90;;;;;;4983274;28;20050;-57
2022/07/16 06:51:49;;;;;;;5.20;0.85;;;18.00;99.90;;;;;;4982984;28;20049;-57
2022/07/16 06:54:15;;;;;;;6.28;0.90;;;18.30;99.90;;;;;;4983929;28;20046;-57
2022/07/16 06:56:40;;;;;;;5.43;0.98;;;18.80;99.90;;;;;;4983030;28;20682;-56
2022/07/16 06:59:06;;;;;;;7.50;1.15;;;18.90;99.90;;;;;;4983358;28;20046;-58
2022/07/16 07:01:32;;;;;;;3.63;0.80;;;18.90;99.90;;;;;;4981584;28;20039;-56
2022/07/16 07:03:57;;;;;;;3.88;1.00;;;19.20;99.90;;;;;;4982358;28;20448;-56
2022/07/16 07:06:23;;;;;;;3.60;1.10;;;19.20;99.90;;;;;;4985460;28;20049;-57
2022/07/16 07:08:48;;;;;;;4.82;1.05;;;19.10;99.90;;;;;;4991622;28;20801;-58
2022/07/16 07:11:14;;;;;;;4.70;0.95;;;19.00;99.90;;;;;;4982148;28;20138;-57
2022/07/16 07:13:40;;;;;;;6.72;1.02;;;19.20;99.90;;;;;;4982996;28;20070;-56
2022/07/16 07:16:06;;;;;;;5.38;1.40;;;19.10;99.90;;;;;;4983142;28;20125;-57
2022/07/16 07:18:33;;;;;;;5.88;1.13;;;19.10;99.90;;;;;;4982963;28;20046;-57
2022/07/16 07:21:00;;;;;;;3.35;0.73;;;19.50;99.90;;;;;;4982395;28;20448;-57
2022/07/16 07:23:26;;;;;;;3.15;0.90;;;19.50;99.90;;;;;;4982548;28;20054;-57
2022/07/16 07:25:51;;;;;;;3.95;0.70;;;19.90;99.90;;;;;;4982264;28;20121;-57
2022/07/16 07:28:17;;;;;;;4.93;1.00;;;20.10;99.90;;;;;;4981941;28;20698;-57
2022/07/16 07:30:43;;;;;;;4.43;1.15;;;20.00;99.90;;;;;;4981942;28;20030;-56
2022/07/16 07:33:09;;;;;;;3.97;0.75;;;19.40;99.90;;;;;;4981324;28;20092;-57
2022/07/16 07:35:34;;;;;;;4.57;0.98;;;18.90;99.90;;;;;;4981524;28;20405;-56
2022/07/16 07:38:01;;;;;;;5.78;1.27;;;18.60;99.90;;;;;;4981710;28;20478;-56
2022/07/16 07:40:27;;;;;;;7.72;1.55;;;18.40;99.90;;;;;;4981645;28;20564;-57
2022/07/16 07:42:54;;;;;;;1.95;0.60;;;18.10;99.90;;;;;;4982431;28;20609;-56
2022/07/16 07:45:20;;;;;;;6.38;0.93;;;17.70;99.90;;;;;;4980727;28;20054;-56
2022/07/16 07:47:46;;;;;;;4.38;0.70;;;18.00;99.90;;;;;;4982013;28;20045;-57
2022/07/16 07:50:13;;;;;;;2.95;0.73;;;18.50;99.90;;;;;;4981716;28;20602;-57
2022/07/16 07:52:39;;;;;;;9.07;1.20;;;18.50;99.90;;;;;;4981369;28;20050;-56
2022/07/16 07:55:06;;;;;;;4.15;0.98;;;18.60;99.90;;;;;;4980955;28;20532;-56
2022/07/16 07:57:33;;;;;;;3.45;1.02;;;18.40;99.90;;;;;;4982258;28;20046;-57
2022/07/16 07:59:58;;;;;;;4.20;0.88;;;18.20;99.90;;;;;;4982380;28;20042;-57
2022/07/16 08:02:25;;;;;;;4.57;0.80;;;17.90;99.90;;;;;;4982250;28;20049;-56
2022/07/16 08:04:51;;;;;;;5.70;1.10;;;17.80;99.90;;;;;;4981907;28;20039;-58
2022/07/16 08:07:17;;;;;;;4.90;1.10;;;17.90;99.90;;;;;;4989345;28;20146;-57
2022/07/16 08:09:43;;;;;;;6.60;1.00;;;18.30;99.90;;;;;;4986208;28;20042;-57
2022/07/16 08:12:09;;;;;;;7.38;1.15;;;18.50;99.90;;;;;;4981697;28;20049;-55
2022/07/16 08:14:35;;;;;;;4.85;0.90;;;18.80;99.90;;;;;;4981717;28;20043;-58
2022/07/16 08:17:01;;;;;;;8.18;1.10;;;19.00;99.90;;;;;;4982336;28;20517;-56
2022/07/16 08:19:27;;;;;;;4.05;0.90;;;18.80;99.90;;;;;;4982272;28;20050;-57
2022/07/16 08:21:53;;;;;;;4.15;0.82;;;18.60;99.90;;;;;;4980638;28;20130;-57
2022/07/16 08:27:04;;;;;;;3.92;0.93;;;18.20;99.90;;;;;;4981549;28;20069;-57
2022/07/16 08:29:30;;;;;;;6.43;1.02;;;18.00;99.90;;;;;;4981530;28;20042;-57
2022/07/16 08:31:56;;;;;;;8.60;1.00;;;18.00;99.90;;;;;;4982022;28;20493;-56
2022/07/16 08:34:23;;;;;;;5.32;1.17;;;17.90;99.90;;;;;;4982099;28;20554;-57
2022/07/16 08:36:49;;;;;;;8.93;0.90;;;18.00;99.90;;;;;;4980923;28;20085;-56
2022/07/16 08:39:15;;;;;;;4.70;1.15;;;17.70;99.90;;;;;;4981820;28;20057;-55
2022/07/16 08:41:42;;;;;;;6.57;0.90;;;17.70;99.90;;;;;;4981690;28;20125;-56
2022/07/16 08:44:11;;;;;;;7.15;1.20;;;17.90;99.90;;;;;;4982230;28;20041;-57
2022/07/16 08:46:37;;;;;;;5.72;1.08;;;17.60;99.90;;;;;;4982247;28;20054;-57
2022/07/16 08:49:03;;;;;;;6.32;1.05;;;17.90;99.90;;;;;;5000939;28;20042;-56
2022/07/16 08:51:48;;;;;;;5.10;1.00;;;18.00;99.90;;;;;;4985367;28;20050;-56
2022/07/16 08:54:19;;;;;;;4.53;0.90;;;18.10;99.90;;;;;;4985416;28;20046;-57
2022/07/16 08:56:46;;;;;;;5.82;1.55;;;18.70;99.90;;;;;;4984930;28;20046;-57
2022/07/16 08:59:13;;;;;;;9.18;1.08;;;18.90;99.90;;;;;;5005419;28;20040;-57
2022/07/16 09:01:39;;;;;;;6.53;1.02;;;19.30;99.90;;;;;;5003585;28;20421;-57
2022/07/16 09:04:05;;;;;;;4.78;0.90;;;19.30;99.90;;;;;;5004532;28;20052;-56
2022/07/16 09:06:31;;;;;;;8.00;1.27;;;19.30;99.90;;;;;;5000408;28;20058;-57
2022/07/16 09:08:57;;;;;;;7.45;1.27;;;19.10;99.90;;;;;;4993870;28;20417;-57
2022/07/16 09:11:25;;;;;;;5.78;1.33;;;19.80;99.90;;;;;;4983763;28;20082;-56
2022/07/16 09:14:08;;;;;;;4.75;0.90;;;20.10;99.90;;;;;;4985310;28;20069;-57
2022/07/16 09:16:37;;;;;;;7.55;1.00;;;19.80;99.90;;;;;;4985252;28;20046;-57
2022/07/16 09:19:23;;;;;;;5.68;1.25;;;19.70;99.90;;;;;;4985360;28;20097;-57
2022/07/16 09:22:12;;;;;;;5.90;0.77;;;19.40;99.90;;;;;;4984989;28;20086;-57
2022/07/16 09:24:40;;;;;;;9.25;1.95;;;19.20;99.90;;;;;;4984135;28;20069;-57
2022/07/16 09:27:06;;;;;;;6.43;1.25;;;18.80;99.90;;;;;;4985101;28;20050;-56
2022/07/16 09:29:42;;;;;;;7.20;1.40;;;18.70;99.90;;;;;;4999730;28;20073;-57
2022/07/16 09:32:08;;;;;;;6.05;0.90;;;18.70;99.90;;;;;;4985438;28;20589;-57
2022/07/16 09:34:33;;;;;;;4.90;1.13;;;18.50;99.90;;;;;;4984999;28;20038;-57
2022/07/16 09:37:04;;;;;;;4.65;1.23;;;18.60;99.90;;;;;;4983200;28;20077;-57
2022/07/16 09:39:31;;;;;;;6.90;1.20;;;18.90;99.90;;;;;;4984566;28;20437;-56
2022/07/16 09:41:57;;;;;;;5.55;1.00;;;19.10;99.90;;;;;;4984844;28;20125;-56
2022/07/16 09:44:31;;;;;;;4.07;1.00;;;19.60;99.90;;;;;;4984875;28;20133;-56
2022/07/16 09:47:01;;;;;;;4.78;0.90;;;20.10;99.90;;;;;;4984765;28;20493;-56
2022/07/16 09:49:29;;;;;;;6.25;1.20;;;20.60;99.90;;;;;;4984675;28;20523;-57
2022/07/16 09:51:55;;;;;;;6.40;1.38;;;20.80;99.90;;;;;;4999869;28;20054;-57
2022/07/16 09:54:39;;;;;;;4.13;1.10;;;21.00;99.90;;;;;;4983938;28;20038;-57
2022/07/16 09:57:11;;;;;;;3.97;0.90;;;20.80;99.90;;;;;;5001184;28;20034;-56
2022/07/16 09:59:38;;;;;;;6.85;1.02;;;20.90;99.90;;;;;;5007800;28;20045;-56
2022/07/16 10:02:04;;;;;;;5.13;1.05;;;20.50;99.90;;;;;;5014196;28;20049;-56
2022/07/16 10:04:31;;;;;;;6.30;1.00;;;20.00;99.90;;;;;;5013325;28;20042;-56
2022/07/16 10:06:57;;;;;;;5.43;0.93;;;20.10;99.90;;;;;;5009611;28;20057;-57
2022/07/16 10:09:24;;;;;;;5.10;1.08;;;20.50;99.90;;;;;;5009203;28;20101;-57
2022/07/16 10:11:51;;;;;;;4.25;0.88;;;21.00;99.90;;;;;;5003617;28;20052;-57
2022/07/16 10:14:17;;;;;;;4.13;0.93;;;21.60;99.90;;;;;;5003591;28;20052;-56
2022/07/16 10:16:47;;;;;;;4.20;1.20;;;21.10;99.90;;;;;;5003991;28;20455;-57
2022/07/16 10:19:13;;;;;;;5.45;1.17;;;20.80;99.90;;;;;;5003683;28;20049;-57
2022/07/16 10:21:40;;;;;;;4.40;0.93;;;20.40;99.90;;;;;;5003078;28;20062;-56
2022/07/16 10:24:08;;;;;;;6.70;0.95;;;20.90;99.90;;;;;;5003543;28;20046;-58
2022/07/16 10:26:35;;;;;;;4.68;0.85;;;21.70;99.90;;;;;;5002378;28;20057;-56
2022/07/16 10:29:02;;;;;;;5.75;0.88;;;21.40;99.90;;;;;;5003565;28;20129;-57
2022/07/16 10:32:26;;;;;;;7.10;1.02;;;21.60;99.90;;;;;;5003313;28;20038;-58
2022/07/16 10:34:37;;;;;;;3.05;0.90;;;21.60;99.90;;;;;;5002992;28;20097;-57
2022/07/16 10:37:05;;;;;;;4.63;1.10;;;21.30;99.90;;;;;;5003117;28;20515;-58
2022/07/16 10:39:31;;;;;;;5.10;1.10;;;20.80;99.90;;;;;;5002265;28;20060;-57
2022/07/16 10:42:03;;;;;;;5.57;0.90;;;20.60;99.90;;;;;;5001579;28;20046;-57
2022/07/16 10:44:46;;;;;;;5.70;0.98;;;20.30;99.90;;;;;;5003315;28;20076;-56
2022/07/16 10:47:14;;;;;;;7.15;1.10;;;20.30;99.90;;;;;;5003368;28;20045;-57
2022/07/16 10:49:40;;;;;;;6.75;1.25;;;20.50;99.90;;;;;;5003022;28;20046;-57
2022/07/16 10:52:14;;;;;;;6.80;1.05;;;20.30;99.90;;;;;;5002608;28;20095;-57
2022/07/16 10:54:41;;;;;;;5.68;1.33;;;20.30;99.90;;;;;;5002141;28;20057;-57
2022/07/16 10:57:09;;;;;;;5.57;1.00;;;20.50;99.90;;;;;;5002671;28;20521;-53
2022/07/16 10:59:40;;;;;;;5.57;1.00;;;21.10;99.90;;;;;;5002442;28;20053;-57
2022/07/16 11:02:07;;;;;;;4.90;1.00;;;21.10;99.90;;;;;;5002667;28;20236;-56
2022/07/16 11:04:44;;;;;;;7.43;1.50;;;20.90;99.90;;;;;;5002608;28;20061;-56
2022/07/16 11:07:13;;;;;;;5.75;1.30;;;20.30;99.90;;;;;;4975052;28;20058;-55
2022/07/16 11:09:43;;;;;;;10.27;1.75;;;20.20;99.90;;;;;;4982240;28;20068;-57
2022/07/16 11:12:21;;;;;;;6.88;1.25;;;20.00;99.90;;;;;;4995594;28;20720;-55
2022/07/16 11:14:49;;;;;;;6.53;1.40;;;20.30;99.90;;;;;;5002537;28;20092;-58
2022/07/16 11:17:23;;;;;;;7.38;1.50;;;20.40;99.90;;;;;;5005853;28;20124;-57
2022/07/16 11:19:52;;;;;;;4.13;1.00;;;20.40;99.90;;;;;;5016477;28;20057;-56
2022/07/16 11:22:22;;;;;;;4.57;1.15;;;20.30;99.90;;;;;;5009002;28;20495;-56
2022/07/16 11:24:50;;;;;;;5.10;1.20;;;20.30;99.90;;;;;;5001999;28;20049;-56
2022/07/16 11:27:16;;;;;;;5.53;1.08;;;20.30;99.90;;;;;;5002377;28;20088;-60
2022/07/16 11:29:42;;;;;;;7.72;1.30;;;20.70;99.90;;;;;;5007328;28;20045;-55
2022/07/16 11:32:17;;;;;;;6.47;1.40;;;21.30;99.90;;;;;;5016456;28;20115;-55
2022/07/16 11:34:43;;;;;;;6.22;1.15;;;21.30;99.90;;;;;;5022271;28;20128;-54
2022/07/16 11:37:08;;;;;;;5.47;1.02;;;21.40;99.90;;;;;;5021641;28;20568;-55
2022/07/16 11:39:34;;;;;;;4.25;0.90;;;21.50;99.90;;;;;;5020761;28;20053;-55
2022/07/16 11:42:00;;;;;;;7.65;1.10;;;21.30;99.90;;;;;;5021695;28;20053;-55
2022/07/16 11:44:31;;;;;;;6.65;1.00;;;21.20;99.90;;;;;;5021313;28;20056;-55
2022/07/16 11:47:03;;;;;;;4.47;0.80;;;20.80;99.90;;;;;;5010257;28;20056;-55
2022/07/16 11:49:31;;;;;;;8.98;1.20;;;20.60;99.90;;;;;;5012104;28;20084;-55
2022/07/16 11:52:03;;;;;;;3.70;0.85;;;20.90;99.90;;;;;;5006141;28;20049;-54
2022/07/16 11:54:34;;;;;;;5.35;1.20;;;21.40;99.90;;;;;;5008860;28;20714;-56
2022/07/16 11:56:59;;;;;;;5.82;1.20;;;21.70;99.90;;;;;;5007138;28;20073;-56
2022/07/16 11:59:28;;;;;;;6.60;1.08;;;21.50;99.90;;;;;;5001861;28;20077;-55
2022/07/16 12:01:59;;;;;;;4.43;0.98;;;21.50;99.90;;;;;;4992526;28;20497;-56
2022/07/16 12:04:46;;;;;;;4.93;1.10;;;21.20;99.90;;;;;;4999540;28;20052;-55
2022/07/16 12:07:17;;;;;;;6.55;1.50;;;21.80;99.90;;;;;;4993809;28;20575;-56
2022/07/16 12:09:45;;;;;;;4.40;1.02;;;21.20;99.90;;;;;;5000993;28;20413;-55
2022/07/16 12:12:16;;;;;;;3.65;1.02;;;21.20;99.90;;;;;;5001961;28;20045;-56
2022/07/16 12:14:53;;;;;;;4.32;0.98;;;21.30;99.90;;;;;;5001995;28;20080;-55
2022/07/16 12:17:26;;;;;;;4.78;1.02;;;21.50;99.90;;;;;;5001015;28;20043;-55
2022/07/16 12:20:20;;;;;;;5.50;1.00;;;21.70;99.90;;;;;;5001173;28;20388;-53
2022/07/16 12:23:00;;;;;;;6.13;0.80;;;21.20;99.90;;;;;;5004367;28;20719;-56
2022/07/16 12:25:26;;;;;;;3.10;0.95;;;21.00;99.90;;;;;;5004272;28;20150;-55
2022/07/16 12:28:10;;;;;;;3.08;0.80;;;21.10;99.90;;;;;;5004417;28;20045;-54
2022/07/16 12:30:38;;;;;;;4.43;0.88;;;21.10;99.90;;;;;;5004836;28;20050;-54
2022/07/16 12:33:14;;;;;;;5.47;1.10;;;21.00;99.90;;;;;;5002797;28;20053;-53
2022/07/16 12:35:46;;;;;;;3.72;0.77;;;21.30;99.90;;;;;;5003244;28;20049;-56
2022/07/16 12:38:36;;;;;;;2.60;0.82;;;21.50;99.90;;;;;;5004125;28;20053;-51
2022/07/16 12:41:02;;;;;;;3.35;0.95;;;21.60;99.90;;;;;;5003826;28;20061;-53
2022/07/16 12:43:28;;;;;;;3.35;0.80;;;21.40;99.90;;;;;;5004918;28;20406;-55
2022/07/16 12:45:54;;;;;;;4.07;0.82;;;21.40;99.90;;;;;;5004842;28;20136;-54
2022/07/16 12:48:20;;;;;;;4.15;0.80;;;21.30;99.90;;;;;;5003915;28;20085;-54
2022/07/16 12:50:46;;;;;;;4.85;0.90;;;21.20;99.90;;;;;;5004924;28;20123;-55
2022/07/16 12:53:11;;;;;;;2.65;0.73;;;21.70;99.90;;;;;;5004937;28;20045;-54
2022/07/16 13:01:06;;;;;;;4.10;1.02;;;22.20;99.90;;;;;;5003948;28;20073;-54
2022/07/16 13:03:31;;;;;;;5.22;1.10;;;21.80;99.90;;;;;;5003982;28;20093;-54
2022/07/16 13:05:57;;;;;;;5.20;1.00;;;21.80;99.90;;;;;;5002399;28;20138;-55